createdAt,value
2019-01-23T00:02:24.775Z,86.40
2019-01-23T00:04:51.924Z,84.67
2019-01-23T00:07:19.164Z,88.90
2019-01-23T00:09:46.437Z,79.73
2019-01-23T00:12:13.722Z,86.50
2019-01-23T00:14:40.966Z,89.43
2019-01-23T00:17:08.282Z,86.43
2019-01-23T00:19:35.522Z,95.47
2019-01-23T00:22:03.284Z,100.53
2019-01-23T00:24:30.565Z,95.63
2019-01-23T00:26:57.810Z,100.97
2019-01-23T00:29:25.094Z,101.03
2019-01-23T00:31:52.353Z,91.70
2019-01-23T00:34:19.556Z,95.83
2019-01-23T00:36:46.891Z,86.33
2019-01-23T00:39:14.151Z,93.47
2019-01-23T00:41:41.427Z,86.27
2019-01-23T00:44:08.702Z,87.40
2019-01-23T00:46:35.995Z,94.83
2019-01-23T00:49:03.374Z,82.60
2019-01-23T00:51:30.673Z,89.40
2019-01-23T00:53:58.034Z,82.50
2019-01-23T00:56:25.175Z,86.83
2019-01-23T00:58:52.439Z,85.03
2019-01-23T01:01:19.704Z,83.17
2019-01-23T01:03:46.881Z,81.70
2019-01-23T01:06:14.161Z,80.57
2019-01-23T01:08:41.328Z,75.10
2019-01-23T01:11:08.505Z,82.07
2019-01-23T01:13:35.833Z,81.03
2019-01-23T01:16:03.289Z,75.87
2019-01-23T01:18:30.578Z,81.33
2019-01-23T01:20:57.846Z,85.63
2019-01-23T01:23:25.089Z,82.27
2019-01-23T01:25:52.277Z,82.03
2019-01-23T01:28:19.402Z,82.77
2019-01-23T01:30:46.640Z,81.37
2019-01-23T01:33:13.915Z,76.87
2019-01-23T01:35:41.208Z,77.73
2019-01-23T01:38:08.490Z,84.17
2019-01-23T01:40:35.736Z,78.87
2019-01-23T01:43:03.046Z,88.03
2019-01-23T01:45:30.418Z,75.10
2019-01-23T01:47:57.671Z,77.23
2019-01-23T01:50:24.946Z,83.67
2019-01-23T01:52:52.224Z,81.30
2019-01-23T01:55:19.458Z,88.57
2019-01-23T01:57:46.950Z,87.40
2019-01-23T02:00:19.246Z,79.87
2019-01-23T02:02:46.553Z,80.50
2019-01-23T02:05:13.898Z,72.67
2019-01-23T02:07:41.170Z,75.73
2019-01-23T02:10:10.944Z,77.63
2019-01-23T02:12:38.200Z,84.97
2019-01-23T02:15:06.867Z,72.97
2019-01-23T02:17:34.121Z,81.23
2019-01-23T02:20:01.397Z,80.90
2019-01-23T02:22:28.651Z,89.43
2019-01-23T02:24:55.781Z,81.87
2019-01-23T02:27:23.055Z,85.63
2019-01-23T02:29:50.303Z,81.93
2019-01-23T02:32:17.569Z,84.63
2019-01-23T02:34:44.797Z,73.03
2019-01-23T02:37:12.071Z,76.37
2019-01-23T02:39:39.390Z,85.57
2019-01-23T02:42:06.547Z,84.40
2019-01-23T02:44:33.803Z,86.77
2019-01-23T02:47:01.178Z,93.50
2019-01-23T02:49:28.465Z,93.07
2019-01-23T02:51:55.731Z,86.10
2019-01-23T02:54:22.969Z,80.70
2019-01-23T02:56:50.122Z,81.97
2019-01-23T02:59:17.656Z,90.07
2019-01-23T03:01:45.016Z,78.07
2019-01-23T03:04:12.235Z,84.40
2019-01-23T03:06:39.494Z,72.30
2019-01-23T03:09:07.209Z,83.70
2019-01-23T03:11:34.442Z,83.87
2019-01-23T03:14:01.722Z,82.70
2019-01-23T03:16:28.970Z,82.07
2019-01-23T03:18:56.242Z,82.37
2019-01-23T03:21:23.521Z,81.20
2019-01-23T03:23:51.130Z,80.97
2019-01-23T03:26:18.282Z,85.40
2019-01-23T03:28:45.653Z,83.30
2019-01-23T03:31:12.824Z,81.17
2019-01-23T03:33:40.094Z,85.37
2019-01-23T03:36:07.343Z,84.50
2019-01-23T03:38:34.581Z,90.20
2019-01-23T03:41:01.862Z,82.93
2019-01-23T03:43:29.097Z,86.83
2019-01-23T03:45:56.508Z,78.63
2019-01-23T03:48:23.652Z,89.83
2019-01-23T03:50:50.955Z,81.27
2019-01-23T03:53:18.126Z,82.87
2019-01-23T03:55:45.409Z,80.87
2019-01-23T03:58:12.642Z,81.07
2019-01-23T04:00:39.823Z,82.67
2019-01-23T04:03:07.086Z,84.70
2019-01-23T04:05:34.358Z,83.63
2019-01-23T04:08:01.731Z,83.53
2019-01-23T04:10:29.083Z,90.97
2019-01-23T04:12:56.373Z,89.93
2019-01-23T04:15:23.599Z,83.73
2019-01-23T04:17:50.876Z,86.47
2019-01-23T04:20:19.728Z,79.40
2019-01-23T04:22:47.083Z,81.90
2019-01-23T04:25:14.354Z,74.53
2019-01-23T04:27:41.617Z,80.73
2019-01-23T04:30:11.700Z,85.47
2019-01-23T04:32:38.969Z,79.23
2019-01-23T04:35:06.214Z,79.00
2019-01-23T04:37:33.400Z,79.37
2019-01-23T04:40:00.633Z,88.10
2019-01-23T04:42:27.877Z,88.93
2019-01-23T04:44:55.257Z,86.63
2019-01-23T04:47:22.518Z,77.93
2019-01-23T04:49:49.786Z,86.83
2019-01-23T04:52:34.337Z,79.30
2019-01-23T04:55:01.583Z,83.73
2019-01-23T04:57:28.837Z,78.87
2019-01-23T04:59:56.000Z,89.20
2019-01-23T05:02:23.244Z,86.63
2019-01-23T05:04:50.477Z,84.27
2019-01-23T05:07:17.750Z,77.67
2019-01-23T05:09:45.007Z,83.37
2019-01-23T05:12:12.257Z,84.53
2019-01-23T05:14:39.523Z,80.87
2019-01-23T05:17:06.812Z,81.50
2019-01-23T05:19:33.930Z,75.13
2019-01-23T05:22:01.210Z,88.27
2019-01-23T05:24:28.471Z,95.03
2019-01-23T05:26:55.716Z,109.27
2019-01-23T05:29:22.875Z,110.00
2019-01-23T05:31:50.130Z,113.10
2019-01-23T05:34:17.419Z,109.73
2019-01-23T05:36:44.657Z,123.60
2019-01-23T05:39:11.898Z,122.53
2019-01-23T05:41:39.066Z,119.53
2019-01-23T05:44:06.320Z,118.43
2019-01-23T05:46:33.614Z,115.27
2019-01-23T05:49:00.933Z,118.17
2019-01-23T05:51:28.082Z,125.27
2019-01-23T05:53:55.379Z,127.97
2019-01-23T05:56:22.633Z,119.10
2019-01-23T05:58:49.893Z,127.53
2019-01-23T06:01:17.458Z,126.13
2019-01-23T06:03:44.574Z,122.50
2019-01-23T06:06:11.743Z,136.47
2019-01-23T06:08:39.027Z,127.77
2019-01-23T06:11:06.289Z,109.43
2019-01-23T06:13:33.582Z,115.57
2019-01-23T06:16:00.943Z,121.17
2019-01-23T06:18:28.127Z,116.90
2019-01-23T06:20:55.677Z,135.73
2019-01-23T06:23:23.030Z,130.73
2019-01-23T06:25:50.378Z,135.87
2019-01-23T06:28:17.647Z,124.67
2019-01-23T06:30:44.896Z,125.10
2019-01-23T06:33:12.145Z,133.03
2019-01-23T06:35:39.424Z,130.23
2019-01-23T06:38:06.676Z,132.57
2019-01-23T06:40:33.993Z,136.37
2019-01-23T06:43:01.174Z,136.60
2019-01-23T06:45:28.345Z,146.00
2019-01-23T06:47:55.658Z,146.63
2019-01-23T06:50:22.914Z,139.47
2019-01-23T06:52:50.140Z,131.13
2019-01-23T06:55:17.927Z,128.87
2019-01-23T06:57:45.177Z,129.70
2019-01-23T07:00:17.215Z,127.90
2019-01-23T07:02:44.662Z,122.90
2019-01-23T07:05:12.023Z,128.83
2019-01-23T07:07:39.344Z,121.13
2019-01-23T07:10:09.161Z,139.47
2019-01-23T07:12:36.503Z,126.83
2019-01-23T07:15:26.024Z,139.77
2019-01-23T07:17:53.295Z,135.77
2019-01-23T07:20:22.379Z,138.13
2019-01-23T07:22:49.521Z,140.63
2019-01-23T07:25:17.228Z,136.37
2019-01-23T07:27:44.510Z,138.47
2019-01-23T07:30:15.499Z,142.37
2019-01-23T07:32:42.886Z,148.47
2019-01-23T07:35:10.155Z,129.67
2019-01-23T07:37:37.487Z,135.43
2019-01-23T07:40:05.320Z,135.63
2019-01-23T07:42:32.589Z,131.20
2019-01-23T07:44:59.754Z,147.50
2019-01-23T07:47:26.924Z,140.97
2019-01-23T07:49:54.164Z,149.57
2019-01-23T07:52:21.388Z,141.10
2019-01-23T07:54:48.634Z,134.17
2019-01-23T07:57:15.876Z,153.77
2019-01-23T07:59:43.186Z,145.17
2019-01-23T08:02:10.306Z,137.70
2019-01-23T08:04:37.554Z,132.80
2019-01-23T08:07:04.826Z,147.17
2019-01-23T08:09:32.091Z,129.93
2019-01-23T08:11:59.375Z,141.43
2019-01-23T08:14:26.772Z,149.23
2019-01-23T08:16:54.046Z,141.97
2019-01-23T08:19:21.300Z,135.63
2019-01-23T08:21:48.556Z,128.27
2019-01-23T08:24:15.849Z,148.33
2019-01-23T08:26:43.125Z,138.73
2019-01-23T08:29:10.387Z,147.67
2019-01-23T08:31:37.636Z,132.07
2019-01-23T08:34:04.929Z,137.70
2019-01-23T08:36:32.461Z,138.00
2019-01-23T08:38:59.698Z,128.37
2019-01-23T08:41:28.733Z,134.83
2019-01-23T08:43:55.969Z,126.77
2019-01-23T08:46:23.217Z,126.67
2019-01-23T08:48:50.513Z,129.50
2019-01-23T08:51:17.653Z,145.07
2019-01-23T08:53:44.824Z,136.57
2019-01-23T08:56:31.547Z,134.83
2019-01-23T08:58:58.703Z,139.37
2019-01-23T09:01:25.993Z,125.37
2019-01-23T09:03:53.239Z,139.23
2019-01-23T09:06:22.243Z,119.57
2019-01-23T09:08:51.252Z,120.63
2019-01-23T09:11:18.488Z,124.20
2019-01-23T09:13:45.777Z,120.80
2019-01-23T09:16:13.103Z,123.33
2019-01-23T09:18:40.280Z,112.77
2019-01-23T09:21:07.576Z,111.33
2019-01-23T09:23:34.742Z,111.90
2019-01-23T09:26:02.016Z,115.17
2019-01-23T09:28:29.287Z,118.03
2019-01-23T09:31:43.147Z,106.67
2019-01-23T09:34:25.572Z,104.37
2019-01-23T09:37:27.779Z,100.07
2019-01-23T09:40:44.908Z,105.27
2019-01-23T09:44:06.399Z,119.57
2019-01-23T09:46:45.131Z,111.60
2019-01-23T09:49:38.146Z,109.60
2019-01-23T09:52:31.120Z,109.67
2019-01-23T09:54:58.399Z,106.13
2019-01-23T09:57:25.584Z,99.77
2019-01-23T09:59:52.858Z,101.93
2019-01-23T10:02:20.089Z,113.00
2019-01-23T10:04:47.214Z,105.27
2019-01-23T10:07:14.559Z,98.27
2019-01-23T10:09:41.806Z,103.63
2019-01-23T10:12:09.045Z,100.87
2019-01-23T10:14:36.321Z,100.07
2019-01-23T10:17:03.693Z,109.17
2019-01-23T10:19:30.931Z,110.47
2019-01-23T10:21:58.288Z,100.90
2019-01-23T10:24:25.474Z,104.60
2019-01-23T10:26:52.702Z,101.57
2019-01-23T10:29:19.898Z,101.27
2019-01-23T10:31:47.165Z,95.13
2019-01-23T10:34:14.398Z,107.87
2019-01-23T10:36:41.682Z,98.63
2019-01-23T10:39:09.314Z,99.17
2019-01-23T10:41:36.477Z,101.13
2019-01-23T10:44:03.965Z,100.27
2019-01-23T10:46:31.136Z,90.43
2019-01-23T10:48:58.295Z,96.13
2019-01-23T10:51:25.560Z,101.43
2019-01-23T10:53:52.819Z,92.03
2019-01-23T10:56:20.092Z,98.17
2019-01-23T10:58:47.456Z,94.37
2019-01-23T11:01:14.628Z,102.57
2019-01-23T11:03:41.912Z,95.20
2019-01-23T11:06:09.441Z,97.33
2019-01-23T11:08:36.791Z,97.30
2019-01-23T11:11:04.522Z,90.33
2019-01-23T11:13:31.801Z,99.53
2019-01-23T11:15:59.087Z,80.20
2019-01-23T11:18:26.326Z,95.57
2019-01-23T11:20:53.595Z,99.70
2019-01-23T11:23:20.969Z,80.33
2019-01-23T11:25:48.133Z,82.50
2019-01-23T11:28:15.399Z,92.53
2019-01-23T11:30:42.657Z,78.27
2019-01-23T11:33:09.899Z,81.63
2019-01-23T11:35:37.162Z,92.83
2019-01-23T11:38:04.307Z,90.07
2019-01-23T11:40:31.773Z,82.50
2019-01-23T11:42:59.191Z,86.13
2019-01-23T11:45:27.282Z,88.10
2019-01-23T11:47:54.529Z,94.93
2019-01-23T11:50:23.147Z,86.90
2019-01-23T11:52:50.840Z,88.03
2019-01-23T11:55:18.063Z,101.03
2019-01-23T11:57:45.330Z,91.00
2019-01-23T12:00:16.057Z,91.47
2019-01-23T12:02:43.336Z,84.73
2019-01-23T12:05:12.358Z,73.23
2019-01-23T12:07:39.778Z,88.47
2019-01-23T12:10:10.060Z,89.83
2019-01-23T12:12:37.330Z,79.37
2019-01-23T12:15:05.654Z,83.10
2019-01-23T12:17:32.920Z,81.53
2019-01-23T12:20:00.298Z,76.83
2019-01-23T12:22:27.559Z,82.33
2019-01-23T12:24:54.902Z,82.80
2019-01-23T12:27:22.067Z,73.43
2019-01-23T12:29:49.319Z,74.97
2019-01-23T12:32:16.608Z,73.00
2019-01-23T12:34:43.838Z,77.30
2019-01-23T12:37:11.138Z,80.50
2019-01-23T12:39:38.411Z,72.67
2019-01-23T12:42:05.787Z,72.70
2019-01-23T12:44:33.040Z,75.37
2019-01-23T12:47:00.328Z,80.97
2019-01-23T12:49:27.531Z,82.00
2019-01-23T12:51:54.837Z,76.50
2019-01-23T12:54:22.070Z,76.47
2019-01-23T12:56:49.308Z,72.23
2019-01-23T12:59:16.579Z,79.17
2019-01-23T13:01:43.815Z,81.73
2019-01-23T13:04:11.124Z,77.90
2019-01-23T13:06:38.275Z,79.83
2019-01-23T13:09:07.372Z,83.67
2019-01-23T13:11:34.624Z,80.20
2019-01-23T13:14:01.895Z,87.73
2019-01-23T13:16:29.146Z,79.00
2019-01-23T13:18:56.383Z,78.13
2019-01-23T13:21:23.551Z,82.03
2019-01-23T13:23:50.802Z,85.20
2019-01-23T13:26:18.090Z,78.40
2019-01-23T13:28:45.239Z,77.77
2019-01-23T13:31:12.539Z,71.37
2019-01-23T13:33:39.817Z,78.43
2019-01-23T13:36:08.608Z,72.23
2019-01-23T13:38:35.898Z,80.00
2019-01-23T13:41:03.428Z,82.00
2019-01-23T13:43:31.919Z,78.33
2019-01-23T13:45:59.203Z,77.30
2019-01-23T13:48:26.391Z,78.80
2019-01-23T13:50:54.598Z,74.10
2019-01-23T13:53:21.905Z,74.40
2019-01-23T13:55:49.307Z,70.30
2019-01-23T13:58:16.456Z,75.70
2019-01-23T14:00:43.692Z,78.40
2019-01-23T14:03:10.889Z,73.60
2019-01-23T14:05:38.141Z,71.37
2019-01-23T14:08:06.647Z,71.57
2019-01-23T14:10:33.873Z,78.93
2019-01-23T14:13:01.063Z,80.70
2019-01-23T14:15:33.512Z,74.67
2019-01-23T14:18:00.690Z,72.07
2019-01-23T14:20:28.157Z,71.23
2019-01-23T14:22:55.734Z,73.50
2019-01-23T14:25:23.013Z,65.60
2019-01-23T14:27:50.137Z,78.03
2019-01-23T14:30:31.819Z,78.40
2019-01-23T14:32:59.032Z,69.03
2019-01-23T14:35:26.783Z,81.60
2019-01-23T14:38:00.340Z,70.23
2019-01-23T14:40:23.177Z,65.77
2019-01-23T14:42:50.538Z,72.33
2019-01-23T14:45:18.646Z,70.27
2019-01-23T14:47:45.782Z,70.17
2019-01-23T14:50:13.278Z,66.80
2019-01-23T14:52:41.134Z,70.63
2019-01-23T14:55:08.706Z,71.07
2019-01-23T14:57:36.062Z,70.20
2019-01-23T15:00:06.115Z,73.97
2019-01-23T15:02:33.444Z,64.13
2019-01-23T15:05:00.759Z,71.17
2019-01-23T15:07:28.037Z,71.60
2019-01-23T15:09:55.313Z,73.83
2019-01-23T15:12:22.567Z,70.27
2019-01-23T15:14:49.951Z,70.63
2019-01-23T15:17:17.201Z,67.07
2019-01-23T15:19:44.463Z,69.97
2019-01-23T15:22:13.046Z,74.27
2019-01-23T15:24:40.320Z,68.67
2019-01-23T15:27:07.582Z,61.17
2019-01-23T15:29:34.829Z,69.10
2019-01-23T15:32:02.098Z,70.60
2019-01-23T15:34:29.396Z,64.27
2019-01-23T15:36:56.687Z,69.77
2019-01-23T15:39:23.821Z,63.73
2019-01-23T15:41:51.104Z,66.53
2019-01-23T15:44:18.373Z,67.17
2019-01-23T15:46:45.757Z,70.03
2019-01-23T15:49:13.032Z,71.87
2019-01-23T15:51:40.335Z,69.47
2019-01-23T15:54:07.627Z,67.33
2019-01-23T15:56:34.986Z,71.77
2019-01-23T15:59:02.273Z,66.70
2019-01-23T16:01:29.483Z,69.43
2019-01-23T16:03:56.727Z,66.17
2019-01-23T16:06:24.094Z,67.37
2019-01-23T16:08:51.353Z,64.20
2019-01-23T16:11:18.577Z,61.90
2019-01-23T16:13:45.853Z,67.43
2019-01-23T16:16:13.090Z,66.63
2019-01-23T16:18:40.357Z,62.50
2019-01-23T16:21:07.641Z,71.10
2019-01-23T16:23:35.044Z,84.03
2019-01-23T16:26:02.328Z,68.07
2019-01-23T16:28:29.557Z,60.53
2019-01-23T16:30:56.881Z,61.40
2019-01-23T16:33:25.044Z,68.33
2019-01-23T16:35:52.281Z,66.20
2019-01-23T16:38:19.555Z,74.17
2019-01-23T16:40:46.819Z,65.57
2019-01-23T16:43:14.099Z,70.40
2019-01-23T16:45:41.446Z,67.17
2019-01-23T16:48:08.713Z,63.80
2019-01-23T16:50:36.041Z,75.40
2019-01-23T16:53:03.603Z,72.37
2019-01-23T16:55:30.886Z,68.70
2019-01-23T16:57:58.333Z,71.33
2019-01-23T17:00:26.102Z,65.87
2019-01-23T17:02:53.578Z,69.17
2019-01-23T17:05:24.446Z,70.73
2019-01-23T17:07:51.908Z,73.97
2019-01-23T17:10:20.979Z,81.10
2019-01-23T17:12:48.329Z,78.83
2019-01-23T17:15:15.612Z,90.23
2019-01-23T17:17:43.158Z,86.43
2019-01-23T17:20:17.164Z,89.80
2019-01-23T17:22:44.324Z,96.67
2019-01-23T17:25:11.654Z,89.63
2019-01-23T17:27:38.916Z,90.57
2019-01-23T17:30:07.827Z,91.07
2019-01-23T17:32:34.972Z,90.17
2019-01-23T17:35:02.332Z,86.67
2019-01-23T17:37:29.564Z,87.67
2019-01-23T17:39:56.852Z,92.43
2019-01-23T17:42:24.016Z,90.63
2019-01-23T17:44:51.178Z,103.13
2019-01-23T17:47:18.653Z,98.20
2019-01-23T17:49:46.041Z,93.80
2019-01-23T17:52:13.617Z,100.27
2019-01-23T17:54:40.814Z,101.40
2019-01-23T17:57:08.086Z,104.03
2019-01-23T17:59:35.248Z,106.33
2019-01-23T18:02:02.563Z,102.00
2019-01-23T18:04:29.833Z,106.83
2019-01-23T18:06:57.245Z,108.23
2019-01-23T18:09:24.641Z,101.83
2019-01-23T18:11:51.903Z,99.20
2019-01-23T18:14:19.229Z,111.70
2019-01-23T18:16:46.386Z,107.50
2019-01-23T18:19:13.646Z,114.93
2019-01-23T18:21:40.916Z,107.97
2019-01-23T18:24:08.283Z,93.83
2019-01-23T18:26:37.632Z,90.43
2019-01-23T18:29:04.752Z,94.73
2019-01-23T18:31:44.434Z,92.53
2019-01-23T18:35:14.722Z,102.53
2019-01-23T18:37:54.576Z,99.90
2019-01-23T18:40:56.076Z,93.03
2019-01-23T18:44:08.429Z,89.40
2019-01-23T18:47:07.828Z,94.17
2019-01-23T18:50:06.185Z,81.03
2019-01-23T18:52:33.431Z,81.13
2019-01-23T18:55:00.752Z,83.93
2019-01-23T18:57:28.228Z,81.40
2019-01-23T18:59:59.284Z,84.67
2019-01-23T19:02:24.759Z,86.20
2019-01-23T19:04:52.038Z,85.30
2019-01-23T19:07:19.375Z,94.17
2019-01-23T19:09:46.518Z,89.73
2019-01-23T19:12:13.808Z,89.43
2019-01-23T19:14:41.052Z,82.70
2019-01-23T19:17:08.393Z,92.67
2019-01-23T19:19:35.642Z,90.33
2019-01-23T19:22:03.027Z,85.17
2019-01-23T19:24:30.319Z,92.63
2019-01-23T19:26:57.752Z,90.60
2019-01-23T19:29:25.100Z,90.50
2019-01-23T19:31:52.322Z,90.90
2019-01-23T19:34:19.610Z,92.67
2019-01-23T19:36:46.853Z,95.30
2019-01-23T19:39:14.156Z,98.50
2019-01-23T19:41:41.431Z,95.70
2019-01-23T19:44:08.758Z,86.03
2019-01-23T19:46:36.032Z,86.37
2019-01-23T19:49:03.328Z,90.47
2019-01-23T19:51:30.695Z,90.53
2019-01-23T19:53:58.006Z,88.83
2019-01-23T19:56:25.368Z,95.67
2019-01-23T19:58:52.625Z,85.97
2019-01-23T20:01:19.886Z,90.60
2019-01-23T20:03:47.146Z,92.80
2019-01-23T20:06:14.507Z,90.33
2019-01-23T20:08:41.747Z,89.00
2019-01-23T20:11:09.008Z,91.70
2019-01-23T20:13:36.269Z,93.47
2019-01-23T20:16:03.661Z,96.87
2019-01-23T20:18:30.919Z,90.90
2019-01-23T20:20:58.320Z,89.93
2019-01-23T20:23:25.726Z,91.47
2019-01-23T20:25:52.987Z,84.67
2019-01-23T20:28:20.239Z,83.03
2019-01-23T20:30:47.526Z,92.30
2019-01-23T20:33:14.817Z,85.70
2019-01-23T20:35:42.114Z,83.30
2019-01-23T20:38:09.362Z,86.97
2019-01-23T20:40:36.621Z,94.87
2019-01-23T20:43:04.510Z,87.10
2019-01-23T20:45:31.746Z,83.27
2019-01-23T20:47:58.998Z,84.33
2019-01-23T20:50:28.553Z,85.67
2019-01-23T20:52:55.746Z,81.43
2019-01-23T20:55:23.050Z,77.33
2019-01-23T20:57:50.560Z,79.73
2019-01-23T21:00:20.390Z,85.17
2019-01-23T21:02:47.766Z,83.87
2019-01-23T21:05:14.939Z,79.57
2019-01-23T21:07:42.327Z,92.80
2019-01-23T21:10:10.973Z,98.17
2019-01-23T21:12:38.255Z,104.87
2019-01-23T21:15:05.734Z,86.13
2019-01-23T21:17:33.012Z,91.43
2019-01-23T21:20:00.360Z,79.37
2019-01-23T21:22:27.618Z,82.80
2019-01-23T21:24:55.018Z,79.53
2019-01-23T21:27:22.194Z,81.80
2019-01-23T21:29:51.107Z,84.27
2019-01-23T21:32:22.999Z,85.80
2019-01-23T21:34:56.658Z,68.03
2019-01-23T21:37:27.160Z,68.97
2019-01-23T21:39:54.606Z,74.27
2019-01-23T21:42:21.981Z,72.23
2019-01-23T21:44:49.237Z,98.10
2019-01-23T21:47:16.371Z,139.60
2019-01-23T21:49:43.641Z,79.33
2019-01-23T21:52:18.043Z,80.13
2019-01-23T21:54:49.516Z,70.77
2019-01-23T21:57:20.559Z,64.93
2019-01-23T21:59:47.844Z,66.63
2019-01-23T22:02:15.235Z,63.67
2019-01-23T22:04:42.539Z,73.43
2019-01-23T22:07:09.809Z,67.47
2019-01-23T22:09:37.173Z,68.77
2019-01-23T22:12:04.478Z,69.43
2019-01-23T22:14:31.857Z,67.93
2019-01-23T22:16:59.032Z,76.60
2019-01-23T22:19:26.267Z,64.13
2019-01-23T22:21:53.598Z,71.57
2019-01-23T22:24:20.818Z,60.03
2019-01-23T22:26:48.094Z,68.63
2019-01-23T22:29:15.364Z,73.90
2019-01-23T22:31:42.650Z,65.20
2019-01-23T22:34:09.897Z,62.83
2019-01-23T22:36:37.145Z,64.47
2019-01-23T22:39:06.619Z,68.40
2019-01-23T22:41:33.868Z,69.47
2019-01-23T22:44:01.136Z,69.67
2019-01-23T22:46:28.394Z,71.30
2019-01-23T22:48:55.668Z,65.77
2019-01-23T22:51:23.063Z,70.30
2019-01-23T22:53:50.329Z,63.57
2019-01-23T22:56:17.578Z,70.23
2019-01-23T22:58:44.726Z,67.30
2019-01-23T23:01:22.193Z,71.43
2019-01-23T23:03:49.549Z,78.10
2019-01-23T23:06:16.846Z,72.40
2019-01-23T23:08:44.105Z,70.07
2019-01-23T23:11:11.331Z,60.20
2019-01-23T23:13:38.624Z,67.03
2019-01-23T23:16:05.755Z,64.83
2019-01-23T23:18:33.022Z,72.80
2019-01-23T23:21:00.281Z,70.03
2019-01-23T23:23:27.540Z,69.37
2019-01-23T23:25:54.797Z,71.17
2019-01-23T23:28:25.943Z,67.17
2019-01-23T23:30:51.228Z,59.20
2019-01-23T23:33:18.529Z,65.90
2019-01-23T23:35:45.804Z,65.80
2019-01-23T23:38:13.037Z,62.17
2019-01-23T23:40:40.318Z,73.10
2019-01-23T23:43:07.543Z,66.83
2019-01-23T23:45:34.794Z,67.47
2019-01-23T23:48:02.033Z,71.47
2019-01-23T23:50:29.300Z,83.37
2019-01-23T23:52:56.529Z,67.37
2019-01-23T23:55:23.770Z,71.47
2019-01-23T23:57:50.894Z,72.53
